sensor_id;sensor_type;location;lat;lon;timestamp;P1;durP1;ratioP1;P2;durP2;ratioP2
33266;SDS011;19638;49.080;11.896;2023-07-16T00:03:30;5.35;;;3.47;;
33266;SDS011;19638;49.080;11.896;2023-07-16T00:07:37;3.83;;;3.35;;
33266;SDS011;19638;49.080;11.896;2023-07-16T00:11:40;3.20;;;2.78;;
33266;SDS011;19638;49.080;11.896;2023-07-16T00:15:43;4.40;;;3.30;;
33266;SDS011;19638;49.080;11.896;2023-07-16T00:19:51;5.88;;;3.25;;
33266;SDS011;19638;49.080;11.896;2023-07-16T00:23:54;14.38;;;4.10;;
33266;SDS011;19638;49.080;11.896;2023-07-16T00:27:58;8.63;;;4.60;;
33266;SDS011;19638;49.080;11.896;2023-07-16T00:32:03;8.40;;;4.47;;
33266;SDS011;19638;49.080;11.896;2023-07-16T00:36:07;8.30;;;4.80;;
33266;SDS011;19638;49.080;11.896;2023-07-16T00:40:11;12.23;;;5.38;;
33266;SDS011;19638;49.080;11.896;2023-07-16T00:44:14;6.60;;;4.70;;
33266;SDS011;19638;49.080;11.896;2023-07-16T00:48:17;9.52;;;5.15;;
33266;SDS011;19638;49.080;11.896;2023-07-16T00:52:24;6.85;;;5.05;;
33266;SDS011;19638;49.080;11.896;2023-07-16T00:56:34;8.35;;;5.05;;
33266;SDS011;19638;49.080;11.896;2023-07-16T01:00:40;6.38;;;5.28;;
33266;SDS011;19638;49.080;11.896;2023-07-16T01:04:44;6.90;;;6.10;;
33266;SDS011;19638;49.080;11.896;2023-07-16T01:08:49;6.72;;;4.95;;
33266;SDS011;19638;49.080;11.896;2023-07-16T01:13:01;6.25;;;4.05;;
33266;SDS011;19638;49.080;11.896;2023-07-16T01:17:05;8.52;;;4.00;;
33266;SDS011;19638;49.080;11.896;2023-07-16T01:21:08;9.23;;;4.68;;
33266;SDS011;19638;49.080;11.896;2023-07-16T01:25:25;6.30;;;4.57;;
33266;SDS011;19638;49.080;11.896;2023-07-16T01:29:43;9.10;;;5.00;;
33266;SDS011;19638;49.080;11.896;2023-07-16T01:33:51;8.77;;;5.03;;
33266;SDS011;19638;49.080;11.896;2023-07-16T01:37:57;9.75;;;5.47;;
33266;SDS011;19638;49.080;11.896;2023-07-16T01:42:03;8.43;;;5.28;;
33266;SDS011;19638;49.080;11.896;2023-07-16T01:46:11;12.35;;;5.90;;
33266;SDS011;19638;49.080;11.896;2023-07-16T01:50:15;8.45;;;6.25;;
33266;SDS011;19638;49.080;11.896;2023-07-16T01:54:18;11.60;;;6.35;;
33266;SDS011;19638;49.080;11.896;2023-07-16T01:58:23;10.02;;;5.80;;
33266;SDS011;19638;49.080;11.896;2023-07-16T02:02:28;9.27;;;5.43;;
33266;SDS011;19638;49.080;11.896;2023-07-16T02:06:31;9.25;;;5.35;;
33266;SDS011;19638;49.080;11.896;2023-07-16T02:10:35;13.43;;;6.00;;
33266;SDS011;19638;49.080;11.896;2023-07-16T02:14:38;10.38;;;5.97;;
33266;SDS011;19638;49.080;11.896;2023-07-16T02:18:42;8.07;;;5.85;;
33266;SDS011;19638;49.080;11.896;2023-07-16T02:22:46;8.18;;;6.00;;
33266;SDS011;19638;49.080;11.896;2023-07-16T02:26:51;13.25;;;6.60;;
33266;SDS011;19638;49.080;11.896;2023-07-16T02:30:54;9.38;;;6.20;;
33266;SDS011;19638;49.080;11.896;2023-07-16T02:34:59;9.18;;;6.00;;
33266;SDS011;19638;49.080;11.896;2023-07-16T02:39:04;11.90;;;6.65;;
33266;SDS011;19638;49.080;11.896;2023-07-16T02:43:10;9.70;;;6.30;;
33266;SDS011;19638;49.080;11.896;2023-07-16T02:47:14;9.43;;;6.40;;
33266;SDS011;19638;49.080;11.896;2023-07-16T02:51:18;10.18;;;6.43;;
33266;SDS011;19638;49.080;11.896;2023-07-16T02:55:26;5.78;;;5.20;;
33266;SDS011;19638;49.080;11.896;2023-07-16T02:59:31;5.63;;;4.72;;
33266;SDS011;19638;49.080;11.896;2023-07-16T03:03:34;6.57;;;4.88;;
33266;SDS011;19638;49.080;11.896;2023-07-16T03:07:39;5.47;;;4.30;;
33266;SDS011;19638;49.080;11.896;2023-07-16T03:11:45;8.75;;;4.63;;
33266;SDS011;19638;49.080;11.896;2023-07-16T03:15:48;9.80;;;4.82;;
33266;SDS011;19638;49.080;11.896;2023-07-16T03:19:52;7.45;;;4.30;;
33266;SDS011;19638;49.080;11.896;2023-07-16T03:23:56;5.35;;;4.53;;
33266;SDS011;19638;49.080;11.896;2023-07-16T03:28:01;5.28;;;4.05;;
33266;SDS011;19638;49.080;11.896;2023-07-16T03:32:04;6.88;;;4.03;;
33266;SDS011;19638;49.080;11.896;2023-07-16T03:36:11;6.15;;;4.13;;
33266;SDS011;19638;49.080;11.896;2023-07-16T03:40:16;4.47;;;4.07;;
33266;SDS011;19638;49.080;11.896;2023-07-16T03:44:24;3.38;;;3.08;;
33266;SDS011;19638;49.080;11.896;2023-07-16T03:48:27;4.68;;;3.50;;
33266;SDS011;19638;49.080;11.896;2023-07-16T03:52:31;5.22;;;3.95;;
33266;SDS011;19638;49.080;11.896;2023-07-16T03:56:36;4.30;;;3.55;;
33266;SDS011;19638;49.080;11.896;2023-07-16T04:00:40;3.10;;;2.80;;
33266;SDS011;19638;49.080;11.896;2023-07-16T04:04:45;3.28;;;2.97;;
33266;SDS011;19638;49.080;11.896;2023-07-16T04:08:49;4.22;;;3.70;;
33266;SDS011;19638;49.080;11.896;2023-07-16T04:12:53;6.78;;;4.47;;
33266;SDS011;19638;49.080;11.896;2023-07-16T04:16:59;11.30;;;4.30;;
33266;SDS011;19638;49.080;11.896;2023-07-16T04:21:03;7.97;;;4.80;;
33266;SDS011;19638;49.080;11.896;2023-07-16T04:25:07;7.32;;;4.63;;
33266;SDS011;19638;49.080;11.896;2023-07-16T04:29:13;5.90;;;3.70;;
33266;SDS011;19638;49.080;11.896;2023-07-16T04:33:17;3.97;;;3.60;;
33266;SDS011;19638;49.080;11.896;2023-07-16T04:37:21;3.65;;;3.33;;
33266;SDS011;19638;49.080;11.896;2023-07-16T04:41:24;5.55;;;4.95;;
33266;SDS011;19638;49.080;11.896;2023-07-16T04:45:31;3.45;;;2.95;;
33266;SDS011;19638;49.080;11.896;2023-07-16T04:49:35;9.32;;;3.50;;
33266;SDS011;19638;49.080;11.896;2023-07-16T04:53:38;3.97;;;3.42;;
33266;SDS011;19638;49.080;11.896;2023-07-16T04:57:41;5.32;;;4.00;;
33266;SDS011;19638;49.080;11.896;2023-07-16T05:01:45;8.10;;;3.30;;
33266;SDS011;19638;49.080;11.896;2023-07-16T05:05:48;5.07;;;3.38;;
33266;SDS011;19638;49.080;11.896;2023-07-16T05:09:55;3.65;;;3.10;;
33266;SDS011;19638;49.080;11.896;2023-07-16T05:14:00;2.88;;;2.67;;
33266;SDS011;19638;49.080;11.896;2023-07-16T05:18:08;3.70;;;2.97;;
33266;SDS011;19638;49.080;11.896;2023-07-16T05:22:11;5.85;;;2.80;;
33266;SDS011;19638;49.080;11.896;2023-07-16T05:26:17;3.03;;;2.60;;
33266;SDS011;19638;49.080;11.896;2023-07-16T05:30:20;8.00;;;2.72;;
33266;SDS011;19638;49.080;11.896;2023-07-16T05:34:28;6.53;;;2.70;;
33266;SDS011;19638;49.080;11.896;2023-07-16T05:38:32;4.05;;;2.90;;
33266;SDS011;19638;49.080;11.896;2023-07-16T05:42:35;3.40;;;3.10;;
33266;SDS011;19638;49.080;11.896;2023-07-16T05:46:44;6.68;;;3.53;;
33266;SDS011;19638;49.080;11.896;2023-07-16T05:50:54;9.77;;;3.20;;
33266;SDS011;19638;49.080;11.896;2023-07-16T05:54:57;4.07;;;2.63;;
33266;SDS011;19638;49.080;11.896;2023-07-16T05:59:02;5.95;;;2.47;;
33266;SDS011;19638;49.080;11.896;2023-07-16T06:03:06;5.50;;;2.45;;
33266;SDS011;19638;49.080;11.896;2023-07-16T06:07:13;8.23;;;2.47;;
33266;SDS011;19638;49.080;11.896;2023-07-16T06:11:22;3.05;;;2.50;;
33266;SDS011;19638;49.080;11.896;2023-07-16T06:15:28;4.65;;;2.20;;
33266;SDS011;19638;49.080;11.896;2023-07-16T06:19:33;3.97;;;2.15;;
33266;SDS011;19638;49.080;11.896;2023-07-16T06:23:41;2.53;;;1.85;;
33266;SDS011;19638;49.080;11.896;2023-07-16T06:27:45;4.00;;;2.00;;
33266;SDS011;19638;49.080;11.896;2023-07-16T06:31:54;2.83;;;2.35;;
33266;SDS011;19638;49.080;11.896;2023-07-16T06:36:01;2.85;;;1.98;;
33266;SDS011;19638;49.080;11.896;2023-07-16T06:40:06;6.15;;;2.22;;
33266;SDS011;19638;49.080;11.896;2023-07-16T06:44:12;4.60;;;2.10;;
33266;SDS011;19638;49.080;11.896;2023-07-16T06:48:16;3.58;;;2.20;;
33266;SDS011;19638;49.080;11.896;2023-07-16T06:52:22;5.35;;;2.03;;
33266;SDS011;19638;49.080;11.896;2023-07-16T06:56:31;3.58;;;1.88;;
33266;SDS011;19638;49.080;11.896;2023-07-16T07:00:34;2.25;;;1.88;;
33266;SDS011;19638;49.080;11.896;2023-07-16T07:04:38;6.32;;;2.15;;
33266;SDS011;19638;49.080;11.896;2023-07-16T07:08:41;4.28;;;1.90;;
33266;SDS011;19638;49.080;11.896;2023-07-16T07:12:45;4.22;;;2.00;;
33266;SDS011;19638;49.080;11.896;2023-07-16T07:16:53;5.68;;;2.05;;
33266;SDS011;19638;49.080;11.896;2023-07-16T07:20:56;5.45;;;1.95;;
33266;SDS011;19638;49.080;11.896;2023-07-16T07:25:00;3.47;;;2.13;;
33266;SDS011;19638;49.080;11.896;2023-07-16T07:29:06;3.47;;;2.00;;
33266;SDS011;19638;49.080;11.896;2023-07-16T07:33:09;2.92;;;1.90;;
33266;SDS011;19638;49.080;11.896;2023-07-16T07:37:15;6.30;;;1.98;;
33266;SDS011;19638;49.080;11.896;2023-07-16T07:41:20;4.15;;;1.95;;
33266;SDS011;19638;49.080;11.896;2023-07-16T07:45:26;5.95;;;2.28;;
33266;SDS011;19638;49.080;11.896;2023-07-16T07:49:31;4.63;;;2.00;;
33266;SDS011;19638;49.080;11.896;2023-07-16T07:53:34;5.07;;;2.38;;
33266;SDS011;19638;49.080;11.896;2023-07-16T07:57:37;4.22;;;2.03;;
33266;SDS011;19638;49.080;11.896;2023-07-16T08:01:42;3.83;;;1.85;;
33266;SDS011;19638;49.080;11.896;2023-07-16T08:05:52;6.38;;;2.20;;
33266;SDS011;19638;49.080;11.896;2023-07-16T08:09:55;3.88;;;2.20;;
33266;SDS011;19638;49.080;11.896;2023-07-16T08:13:58;2.67;;;2.05;;
33266;SDS011;19638;49.080;11.896;2023-07-16T08:18:03;4.38;;;1.98;;
33266;SDS011;19638;49.080;11.896;2023-07-16T08:22:07;3.78;;;2.03;;
33266;SDS011;19638;49.080;11.896;2023-07-16T08:26:16;4.22;;;2.00;;
33266;SDS011;19638;49.080;11.896;2023-07-16T08:30:20;3.28;;;1.90;;
33266;SDS011;19638;49.080;11.896;2023-07-16T08:34:24;3.25;;;2.10;;
33266;SDS011;19638;49.080;11.896;2023-07-16T08:38:32;3.30;;;1.90;;
33266;SDS011;19638;49.080;11.896;2023-07-16T08:42:38;3.50;;;1.90;;
33266;SDS011;19638;49.080;11.896;2023-07-16T08:46:41;3.40;;;2.10;;
33266;SDS011;19638;49.080;11.896;2023-07-16T08:50:47;3.38;;;2.10;;
33266;SDS011;19638;49.080;11.896;2023-07-16T08:54:53;4.97;;;2.00;;
33266;SDS011;19638;49.080;11.896;2023-07-16T08:58:59;6.30;;;2.17;;
33266;SDS011;19638;49.080;11.896;2023-07-16T09:03:05;5.85;;;2.33;;
33266;SDS011;19638;49.080;11.896;2023-07-16T09:07:09;5.45;;;2.08;;
33266;SDS011;19638;49.080;11.896;2023-07-16T09:11:13;3.80;;;1.83;;
33266;SDS011;19638;49.080;11.896;2023-07-16T09:15:17;2.47;;;1.85;;
33266;SDS011;19638;49.080;11.896;2023-07-16T09:19:25;3.97;;;2.28;;
33266;SDS011;19638;49.080;11.896;2023-07-16T09:23:30;6.05;;;2.33;;
33266;SDS011;19638;49.080;11.896;2023-07-16T09:27:37;4.75;;;2.42;;
33266;SDS011;19638;49.080;11.896;2023-07-16T09:31:50;5.10;;;2.30;;
33266;SDS011;19638;49.080;11.896;2023-07-16T09:35:55;4.10;;;2.10;;
33266;SDS011;19638;49.080;11.896;2023-07-16T09:39:59;3.80;;;2.30;;
33266;SDS011;19638;49.080;11.896;2023-07-16T09:44:05;4.03;;;2.50;;
33266;SDS011;19638;49.080;11.896;2023-07-16T09:48:12;5.15;;;2.10;;
33266;SDS011;19638;49.080;11.896;2023-07-16T09:52:16;7.25;;;1.95;;
33266;SDS011;19638;49.080;11.896;2023-07-16T09:56:23;5.20;;;2.28;;
33266;SDS011;19638;49.080;11.896;2023-07-16T10:00:32;7.55;;;2.10;;
33266;SDS011;19638;49.080;11.896;2023-07-16T10:04:41;6.40;;;2.10;;
33266;SDS011;19638;49.080;11.896;2023-07-16T10:08:48;5.85;;;2.38;;
33266;SDS011;19638;49.080;11.896;2023-07-16T10:12:56;8.13;;;3.13;;
33266;SDS011;19638;49.080;11.896;2023-07-16T10:17:07;5.32;;;2.33;;
33266;SDS011;19638;49.080;11.896;2023-07-16T10:21:22;1.90;;;1.80;;
33266;SDS011;19638;49.080;11.896;2023-07-16T10:25:26;4.03;;;1.90;;
33266;SDS011;19638;49.080;11.896;2023-07-16T10:29:35;5.32;;;2.55;;
33266;SDS011;19638;49.080;11.896;2023-07-16T10:33:38;2.47;;;2.22;;
33266;SDS011;19638;49.080;11.896;2023-07-16T10:37:43;5.38;;;2.22;;
33266;SDS011;19638;49.080;11.896;2023-07-16T10:41:46;5.13;;;2.58;;
33266;SDS011;19638;49.080;11.896;2023-07-16T10:45:51;5.72;;;2.10;;
33266;SDS011;19638;49.080;11.896;2023-07-16T10:49:55;4.88;;;2.10;;
33266;SDS011;19638;49.080;11.896;2023-07-16T10:54:00;4.60;;;2.38;;
33266;SDS011;19638;49.080;11.896;2023-07-16T10:58:09;3.38;;;2.25;;
33266;SDS011;19638;49.080;11.896;2023-07-16T11:02:15;4.40;;;2.35;;
33266;SDS011;19638;49.080;11.896;2023-07-16T11:06:19;5.60;;;2.40;;
33266;SDS011;19638;49.080;11.896;2023-07-16T11:10:23;4.60;;;2.38;;
33266;SDS011;19638;49.080;11.896;2023-07-16T11:14:27;3.63;;;2.08;;
33266;SDS011;19638;49.080;11.896;2023-07-16T11:18:32;4.15;;;2.00;;
33266;SDS011;19638;49.080;11.896;2023-07-16T11:22:36;3.85;;;2.45;;
33266;SDS011;19638;49.080;11.896;2023-07-16T11:26:48;5.55;;;2.35;;
33266;SDS011;19638;49.080;11.896;2023-07-16T11:30:52;3.85;;;2.67;;
33266;SDS011;19638;49.080;11.896;2023-07-16T11:35:00;5.63;;;2.70;;
33266;SDS011;19638;49.080;11.896;2023-07-16T11:39:05;5.30;;;2.80;;
33266;SDS011;19638;49.080;11.896;2023-07-16T11:43:11;2.70;;;2.40;;
33266;SDS011;19638;49.080;11.896;2023-07-16T11:47:18;5.20;;;2.15;;
33266;SDS011;19638;49.080;11.896;2023-07-16T11:51:22;3.10;;;2.58;;
33266;SDS011;19638;49.080;11.896;2023-07-16T11:55:28;4.43;;;2.70;;
33266;SDS011;19638;49.080;11.896;2023-07-16T11:59:31;2.50;;;2.25;;
33266;SDS011;19638;49.080;11.896;2023-07-16T12:03:34;2.90;;;2.00;;
33266;SDS011;19638;49.080;11.896;2023-07-16T12:07:38;3.70;;;2.53;;
33266;SDS011;19638;49.080;11.896;2023-07-16T12:11:41;3.05;;;2.40;;
33266;SDS011;19638;49.080;11.896;2023-07-16T12:15:46;6.05;;;2.75;;
33266;SDS011;19638;49.080;11.896;2023-07-16T12:19:49;2.33;;;2.20;;
33266;SDS011;19638;49.080;11.896;2023-07-16T12:23:54;3.13;;;2.58;;
33266;SDS011;19638;49.080;11.896;2023-07-16T12:27:57;2.83;;;2.63;;
33266;SDS011;19638;49.080;11.896;2023-07-16T12:32:04;3.10;;;2.50;;
33266;SDS011;19638;49.080;11.896;2023-07-16T12:36:13;5.10;;;2.75;;
33266;SDS011;19638;49.080;11.896;2023-07-16T12:40:19;5.15;;;2.38;;
33266;SDS011;19638;49.080;11.896;2023-07-16T12:44:22;2.60;;;2.35;;
33266;SDS011;19638;49.080;11.896;2023-07-16T12:48:29;3.60;;;2.65;;
33266;SDS011;19638;49.080;11.896;2023-07-16T12:52:33;2.53;;;2.30;;
33266;SDS011;19638;49.080;11.896;2023-07-16T12:56:38;4.10;;;2.33;;
33266;SDS011;19638;49.080;11.896;2023-07-16T13:00:41;2.65;;;2.45;;
33266;SDS011;19638;49.080;11.896;2023-07-16T13:04:46;3.05;;;2.15;;
33266;SDS011;19638;49.080;11.896;2023-07-16T13:08:50;5.20;;;2.30;;
33266;SDS011;19638;49.080;11.896;2023-07-16T13:12:55;2.28;;;2.00;;
33266;SDS011;19638;49.080;11.896;2023-07-16T13:17:03;2.60;;;2.40;;
33266;SDS011;19638;49.080;11.896;2023-07-16T13:21:10;4.60;;;2.30;;
33266;SDS011;19638;49.080;11.896;2023-07-16T13:25:13;2.60;;;2.40;;
33266;SDS011;19638;49.080;11.896;2023-07-16T13:29:20;5.18;;;2.45;;
33266;SDS011;19638;49.080;11.896;2023-07-16T13:33:28;2.20;;;2.00;;
33266;SDS011;19638;49.080;11.896;2023-07-16T13:37:31;2.22;;;2.03;;
33266;SDS011;19638;49.080;11.896;2023-07-16T13:41:38;4.72;;;2.15;;
33266;SDS011;19638;49.080;11.896;2023-07-16T13:45:43;2.47;;;2.00;;
33266;SDS011;19638;49.080;11.896;2023-07-16T13:49:48;2.13;;;1.90;;
33266;SDS011;19638;49.080;11.896;2023-07-16T13:53:54;2.22;;;2.03;;
33266;SDS011;19638;49.080;11.896;2023-07-16T13:57:57;2.60;;;2.00;;
33266;SDS011;19638;49.080;11.896;2023-07-16T14:02:03;3.92;;;2.00;;
33266;SDS011;19638;49.080;11.896;2023-07-16T14:06:07;2.88;;;2.33;;
33266;SDS011;19638;49.080;11.896;2023-07-16T14:10:10;2.65;;;2.13;;
33266;SDS011;19638;49.080;11.896;2023-07-16T14:14:17;3.58;;;2.22;;
33266;SDS011;19638;49.080;11.896;2023-07-16T14:18:22;2.40;;;1.92;;
33266;SDS011;19638;49.080;11.896;2023-07-16T14:22:25;1.90;;;1.80;;
33266;SDS011;19638;49.080;11.896;2023-07-16T14:26:31;3.22;;;2.13;;
33266;SDS011;19638;49.080;11.896;2023-07-16T14:30:34;2.30;;;1.90;;
33266;SDS011;19638;49.080;11.896;2023-07-16T14:34:39;2.05;;;1.85;;
33266;SDS011;19638;49.080;11.896;2023-07-16T14:38:46;1.92;;;1.83;;
33266;SDS011;19638;49.080;11.896;2023-07-16T14:42:53;2.08;;;1.98;;
33266;SDS011;19638;49.080;11.896;2023-07-16T14:47:00;5.68;;;2.20;;
33266;SDS011;19638;49.080;11.896;2023-07-16T14:51:07;2.70;;;2.10;;
33266;SDS011;19638;49.080;11.896;2023-07-16T14:55:11;2.35;;;2.15;;
33266;SDS011;19638;49.080;11.896;2023-07-16T14:59:14;2.33;;;2.13;;
33266;SDS011;19638;49.080;11.896;2023-07-16T15:03:17;2.20;;;1.92;;
33266;SDS011;19638;49.080;11.896;2023-07-16T15:07:24;4.80;;;1.95;;
33266;SDS011;19638;49.080;11.896;2023-07-16T15:11:29;4.93;;;2.17;;
33266;SDS011;19638;49.080;11.896;2023-07-16T15:15:35;3.20;;;2.25;;
33266;SDS011;19638;49.080;11.896;2023-07-16T15:19:39;2.75;;;2.00;;
33266;SDS011;19638;49.080;11.896;2023-07-16T15:23:44;4.43;;;2.10;;
33266;SDS011;19638;49.080;11.896;2023-07-16T15:27:49;2.13;;;2.00;;
33266;SDS011;19638;49.080;11.896;2023-07-16T15:31:54;2.97;;;2.15;;
33266;SDS011;19638;49.080;11.896;2023-07-16T15:36:00;2.70;;;1.92;;
33266;SDS011;19638;49.080;11.896;2023-07-16T15:40:13;1.73;;;1.63;;
33266;SDS011;19638;49.080;11.896;2023-07-16T15:44:19;2.20;;;2.10;;
33266;SDS011;19638;49.080;11.896;2023-07-16T15:48:22;2.78;;;1.83;;
33266;SDS011;19638;49.080;11.896;2023-07-16T15:52:25;3.53;;;2.00;;
33266;SDS011;19638;49.080;11.896;2023-07-16T15:56:32;2.33;;;2.00;;
33266;SDS011;19638;49.080;11.896;2023-07-16T16:00:35;4.20;;;2.33;;
33266;SDS011;19638;49.080;11.896;2023-07-16T16:04:41;3.72;;;2.20;;
33266;SDS011;19638;49.080;11.896;2023-07-16T16:08:44;9.68;;;2.20;;
33266;SDS011;19638;49.080;11.896;2023-07-16T16:12:49;2.10;;;2.00;;
33266;SDS011;19638;49.080;11.896;2023-07-16T16:16:52;4.85;;;2.13;;
33266;SDS011;19638;49.080;11.896;2023-07-16T16:21:10;2.72;;;2.47;;
33266;SDS011;19638;49.080;11.896;2023-07-16T16:25:19;4.25;;;2.30;;
33266;SDS011;19638;49.080;11.896;2023-07-16T16:29:29;2.70;;;2.50;;
33266;SDS011;19638;49.080;11.896;2023-07-16T16:33:32;2.45;;;2.10;;
33266;SDS011;19638;49.080;11.896;2023-07-16T16:37:37;3.40;;;2.13;;
33266;SDS011;19638;49.080;11.896;2023-07-16T16:41:48;2.72;;;2.17;;
33266;SDS011;19638;49.080;11.896;2023-07-16T16:45:54;3.92;;;2.40;;
33266;SDS011;19638;49.080;11.896;2023-07-16T16:49:57;4.63;;;2.35;;
33266;SDS011;19638;49.080;11.896;2023-07-16T16:54:01;2.22;;;2.00;;
33266;SDS011;19638;49.080;11.896;2023-07-16T16:58:05;4.15;;;2.50;;
33266;SDS011;19638;49.080;11.896;2023-07-16T17:02:09;2.60;;;2.30;;
33266;SDS011;19638;49.080;11.896;2023-07-16T17:06:13;2.28;;;2.10;;
33266;SDS011;19638;49.080;11.896;2023-07-16T17:10:17;4.45;;;2.47;;
33266;SDS011;19638;49.080;11.896;2023-07-16T17:14:22;3.25;;;2.17;;
33266;SDS011;19638;49.080;11.896;2023-07-16T17:18:27;3.15;;;2.38;;
33266;SDS011;19638;49.080;11.896;2023-07-16T17:22:33;2.92;;;2.63;;
33266;SDS011;19638;49.080;11.896;2023-07-16T17:26:43;5.47;;;2.10;;
33266;SDS011;19638;49.080;11.896;2023-07-16T17:30:47;2.55;;;2.20;;
33266;SDS011;19638;49.080;11.896;2023-07-16T17:34:52;3.05;;;2.35;;
33266;SDS011;19638;49.080;11.896;2023-07-16T17:38:55;3.53;;;2.63;;
33266;SDS011;19638;49.080;11.896;2023-07-16T17:43:01;3.45;;;2.20;;
33266;SDS011;19638;49.080;11.896;2023-07-16T17:47:04;2.40;;;2.25;;
33266;SDS011;19638;49.080;11.896;2023-07-16T17:51:14;2.33;;;2.10;;
33266;SDS011;19638;49.080;11.896;2023-07-16T17:55:18;2.40;;;2.20;;
33266;SDS011;19638;49.080;11.896;2023-07-16T17:59:22;2.40;;;2.30;;
33266;SDS011;19638;49.080;11.896;2023-07-16T18:03:25;2.58;;;2.28;;
33266;SDS011;19638;49.080;11.896;2023-07-16T18:07:43;6.00;;;2.67;;
33266;SDS011;19638;49.080;11.896;2023-07-16T18:12:05;2.60;;;2.40;;
33266;SDS011;19638;49.080;11.896;2023-07-16T18:16:11;3.00;;;2.40;;
33266;SDS011;19638;49.080;11.896;2023-07-16T18:20:18;3.38;;;2.38;;
33266;SDS011;19638;49.080;11.896;2023-07-16T18:24:23;3.67;;;2.45;;
33266;SDS011;19638;49.080;11.896;2023-07-16T18:28:27;2.72;;;2.50;;
33266;SDS011;19638;49.080;11.896;2023-07-16T18:32:31;2.40;;;2.30;;
33266;SDS011;19638;49.080;11.896;2023-07-16T18:36:35;2.83;;;2.45;;
33266;SDS011;19638;49.080;11.896;2023-07-16T18:40:41;4.38;;;2.80;;
33266;SDS011;19638;49.080;11.896;2023-07-16T18:44:47;5.97;;;2.92;;
33266;SDS011;19638;49.080;11.896;2023-07-16T18:48:51;3.20;;;2.90;;
33266;SDS011;19638;49.080;11.896;2023-07-16T18:52:55;2.90;;;2.70;;
33266;SDS011;19638;49.080;11.896;2023-07-16T18:57:02;2.88;;;2.60;;
33266;SDS011;19638;49.080;11.896;2023-07-16T19:01:06;2.60;;;2.40;;
33266;SDS011;19638;49.080;11.896;2023-07-16T19:05:10;3.75;;;2.42;;
33266;SDS011;19638;49.080;11.896;2023-07-16T19:09:13;4.82;;;2.95;;
33266;SDS011;19638;49.080;11.896;2023-07-16T19:13:17;3.35;;;3.05;;
33266;SDS011;19638;49.080;11.896;2023-07-16T19:17:23;4.63;;;2.88;;
33266;SDS011;19638;49.080;11.896;2023-07-16T19:21:27;3.00;;;2.72;;
33266;SDS011;19638;49.080;11.896;2023-07-16T19:25:32;5.70;;;2.72;;
33266;SDS011;19638;49.080;11.896;2023-07-16T19:29:39;4.22;;;2.70;;
33266;SDS011;19638;49.080;11.896;2023-07-16T19:33:44;5.18;;;2.90;;
33266;SDS011;19638;49.080;11.896;2023-07-16T19:37:48;2.92;;;2.45;;
33266;SDS011;19638;49.080;11.896;2023-07-16T19:41:56;3.42;;;2.78;;
33266;SDS011;19638;49.080;11.896;2023-07-16T19:46:05;7.32;;;3.03;;
33266;SDS011;19638;49.080;11.896;2023-07-16T19:50:11;6.03;;;2.70;;
33266;SDS011;19638;49.080;11.896;2023-07-16T19:54:14;8.70;;;3.00;;
33266;SDS011;19638;49.080;11.896;2023-07-16T19:58:17;6.20;;;3.10;;
33266;SDS011;19638;49.080;11.896;2023-07-16T20:02:23;3.22;;;2.92;;
33266;SDS011;19638;49.080;11.896;2023-07-16T20:06:27;4.30;;;2.70;;
33266;SDS011;19638;49.080;11.896;2023-07-16T20:10:32;7.78;;;3.30;;
33266;SDS011;19638;49.080;11.896;2023-07-16T20:14:37;4.72;;;2.85;;
33266;SDS011;19638;49.080;11.896;2023-07-16T20:18:42;3.38;;;3.00;;
33266;SDS011;19638;49.080;11.896;2023-07-16T20:22:45;7.32;;;4.07;;
33266;SDS011;19638;49.080;11.896;2023-07-16T20:26:54;3.42;;;3.03;;
33266;SDS011;19638;49.080;11.896;2023-07-16T20:30:58;12.18;;;3.47;;
33266;SDS011;19638;49.080;11.896;2023-07-16T20:35:02;3.20;;;2.92;;
33266;SDS011;19638;49.080;11.896;2023-07-16T20:39:08;4.82;;;3.28;;
33266;SDS011;19638;49.080;11.896;2023-07-16T20:43:11;6.90;;;3.50;;
33266;SDS011;19638;49.080;11.896;2023-07-16T20:47:15;4.13;;;3.63;;
33266;SDS011;19638;49.080;11.896;2023-07-16T20:51:22;10.23;;;3.90;;
33266;SDS011;19638;49.080;11.896;2023-07-16T20:55:26;6.07;;;3.30;;
33266;SDS011;19638;49.080;11.896;2023-07-16T20:59:33;5.88;;;3.42;;
33266;SDS011;19638;49.080;11.896;2023-07-16T21:03:38;6.00;;;3.60;;
33266;SDS011;19638;49.080;11.896;2023-07-16T21:07:45;4.50;;;3.30;;
33266;SDS011;19638;49.080;11.896;2023-07-16T21:11:50;6.25;;;3.45;;
33266;SDS011;19638;49.080;11.896;2023-07-16T21:15:55;5.90;;;3.13;;
33266;SDS011;19638;49.080;11.896;2023-07-16T21:19:58;4.63;;;3.22;;
33266;SDS011;19638;49.080;11.896;2023-07-16T21:24:07;4.20;;;3.30;;
33266;SDS011;19638;49.080;11.896;2023-07-16T21:28:13;5.20;;;3.50;;
33266;SDS011;19638;49.080;11.896;2023-07-16T21:32:22;4.78;;;3.45;;
33266;SDS011;19638;49.080;11.896;2023-07-16T21:36:26;7.53;;;3.15;;
33266;SDS011;19638;49.080;11.896;2023-07-16T21:40:30;3.13;;;2.80;;
33266;SDS011;19638;49.080;11.896;2023-07-16T21:44:36;4.20;;;3.35;;
33266;SDS011;19638;49.080;11.896;2023-07-16T21:48:42;5.05;;;3.33;;
33266;SDS011;19638;49.080;11.896;2023-07-16T21:52:46;3.58;;;3.17;;
33266;SDS011;19638;49.080;11.896;2023-07-16T21:56:53;3.65;;;3.35;;
33266;SDS011;19638;49.080;11.896;2023-07-16T22:00:57;6.03;;;3.58;;
33266;SDS011;19638;49.080;11.896;2023-07-16T22:05:00;4.13;;;3.33;;
33266;SDS011;19638;49.080;11.896;2023-07-16T22:09:05;5.18;;;3.47;;
33266;SDS011;19638;49.080;11.896;2023-07-16T22:13:11;4.68;;;3.50;;
33266;SDS011;19638;49.080;11.896;2023-07-16T22:17:16;5.18;;;3.15;;
33266;SDS011;19638;49.080;11.896;2023-07-16T22:21:20;9.90;;;3.20;;
33266;SDS011;19638;49.080;11.896;2023-07-16T22:25:26;4.80;;;3.55;;
33266;SDS011;19638;49.080;11.896;2023-07-16T22:29:32;3.83;;;3.50;;
33266;SDS011;19638;49.080;11.896;2023-07-16T22:33:38;4.85;;;3.83;;
33266;SDS011;19638;49.080;11.896;2023-07-16T22:37:41;5.53;;;3.38;;
33266;SDS011;19638;49.080;11.896;2023-07-16T22:41:50;6.60;;;3.92;;
33266;SDS011;19638;49.080;11.896;2023-07-16T22:46:04;9.65;;;3.38;;
33266;SDS011;19638;49.080;11.896;2023-07-16T22:50:13;3.50;;;3.20;;
33266;SDS011;19638;49.080;11.896;2023-07-16T22:54:17;4.82;;;3.40;;
33266;SDS011;19638;49.080;11.896;2023-07-16T22:58:22;8.20;;;3.60;;
33266;SDS011;19638;49.080;11.896;2023-07-16T23:02:27;5.85;;;3.42;;
33266;SDS011;19638;49.080;11.896;2023-07-16T23:06:31;5.55;;;3.67;;
33266;SDS011;19638;49.080;11.896;2023-07-16T23:10:37;4.80;;;3.90;;
33266;SDS011;19638;49.080;11.896;2023-07-16T23:14:40;6.72;;;3.47;;
33266;SDS011;19638;49.080;11.896;2023-07-16T23:18:47;5.28;;;3.33;;
33266;SDS011;19638;49.080;11.896;2023-07-16T23:22:53;4.40;;;3.40;;
33266;SDS011;19638;49.080;11.896;2023-07-16T23:26:56;3.60;;;3.25;;
33266;SDS011;19638;49.080;11.896;2023-07-16T23:31:00;3.42;;;3.13;;
33266;SDS011;19638;49.080;11.896;2023-07-16T23:35:06;4.97;;;3.85;;
33266;SDS011;19638;49.080;11.896;2023-07-16T23:39:14;4.63;;;3.90;;
33266;SDS011;19638;49.080;11.896;2023-07-16T23:43:17;3.90;;;3.50;;
33266;SDS011;19638;49.080;11.896;2023-07-16T23:47:23;7.15;;;4.00;;
33266;SDS011;19638;49.080;11.896;2023-07-16T23:51:27;5.45;;;3.80;;
33266;SDS011;19638;49.080;11.896;2023-07-16T23:55:31;5.38;;;4.10;;
33266;SDS011;19638;49.080;11.896;2023-07-16T23:59:36;7.13;;;3.95;;
